Fruitland
, Fruitland
Last Weather Update:03/29/2012 12:00:00 PM
Date
ETo
ETc
Rain
Irrigation
Req
Temp
Max
Temp
Min
Temp
Avg
Avg RH
Avg Wind
Avg Solar
inches
inches
incehs
inches
F
F
F
%
%
watts/m2
02/01/2012 0.03" 0.00" 0.00" 0.00" 39.2° 11.8° 24.3° 67.7% 0.0 MPH 101.1w/m2
02/02/2012 0.04" 0.00" 0.03" -0.02" 41.0° 8.5° 25.1° 81.2% 0.0 MPH 104.7w/m2
02/03/2012 0.04" 0.00" 0.01" -0.01" 35.9° 9.5° 20.2° 74.7% 1.4 MPH 137.1w/m2
02/04/2012 0.05" 0.00" 0.00" 0.00" 35.0° 2.9° 17.5° 69.9% 1.6 MPH 155.1w/m2
02/05/2012 0.05" 0.00" 0.00" 0.00" 37.6° 1.7° 19.3° 68.4% 0.0 MPH 143.9w/m2
02/06/2012 0.05" 0.00" 0.00" 0.00" 39.7° 8.4° 22.6° 66.3% 0.0 MPH 159.2w/m2
02/07/2012 0.04" 0.00" 0.00" 0.00" 34.9° 4.6° 18.8° 71.0% 0.1 MPH 156.9w/m2
02/08/2012 0.04" 0.00" 0.00" 0.00" 39.3° 15.2° 27.2° 73.2% 4.2 MPH 85.9w/m2
02/09/2012 0.05" 0.00" 0.00" 0.00" 40.4° 26.3° 32.4° 70.0% 8.2 MPH 98.5w/m2
02/10/2012 0.05" 0.00" 0.00" 0.00" 46.3° 23.9° 33.9° 73.8% 6.8 MPH 96.7w/m2
02/11/2012 0.04" 0.00" 0.00" 0.00" 43.3° 16.4° 28.2° 76.8% 0.8 MPH 104.3w/m2
02/12/2012 0.03" 0.00" 0.16" -0.13" 37.1° 26.3° 30.6° 87.3% 4.0 MPH 74.1w/m2
02/13/2012 0.05" 0.00" 0.00" 0.00" 40.5° 13.8° 29.1° 70.2% 4.8 MPH 145.7w/m2
02/14/2012 0.04" 0.00" 0.04" -0.03" 40.4° 17.8° 28.5° 77.8% 3.5 MPH 101.7w/m2
02/15/2012 0.04" 0.00" 0.00" 0.00" 35.2° 14.0° 25.2° 80.5% 0.7 MPH 100.1w/m2
02/16/2012 0.06" 0.00" 0.00" 0.00" 39.2° 15.2° 26.2° 71.8% 5.6 MPH 181.0w/m2
02/17/2012 0.07" 0.00" 0.00" 0.00" 39.2° 17.6° 26.7° 63.5% 7.7 MPH 174.0w/m2
02/18/2012 0.07" 0.00" 0.00" 0.00" 42.5° 9.9° 27.3° 62.0% 2.8 MPH 176.9w/m2
02/19/2012 0.03" 0.00" 0.00" 0.00" 30.8° 16.3° 23.9° 72.4% 8.1 MPH 90.2w/m2
02/20/2012 0.05" 0.00" 0.00" 0.00" 31.5° 5.6° 20.6° 63.6% 7.1 MPH 175.8w/m2
02/21/2012 0.07" 0.00" 0.00" 0.00" 39.0° 20.2° 30.8° 67.7% 14.3 MPH 163.9w/m2
02/22/2012 0.09" 0.00" 0.00" 0.00" 48.1° 33.3° 39.8° 64.2% 17.1 MPH 167.8w/m2
02/23/2012 0.07" 0.00" 0.01" -0.01" 36.5° 15.6° 25.8° 57.3% 10.9 MPH 188.6w/m2
02/24/2012 0.07" 0.00" 0.00" 0.00" 41.8° 13.6° 25.5° 56.1% 5.5 MPH 199.9w/m2
02/25/2012 0.08" 0.00" 0.00" 0.00" 44.5° 11.6° 24.5° 63.2% 8.0 MPH 204.6w/m2
02/26/2012 0.06" 0.00" 0.00" 0.00" 36.0° 11.9° 21.4° 50.1% 6.5 MPH 204.8w/m2
02/27/2012 0.06" 0.00" 0.00" 0.00" 38.7° 14.2° 26.4° 56.2% 2.3 MPH 161.5w/m2
02/28/2012 0.05" 0.00" 0.00" 0.00" 35.7° 17.4° 26.4° 75.1% 7.7 MPH 167.3w/m2
02/29/2012 0.04" 0.00" 0.00" 0.00" 38.0° 19.8° 27.7° 73.2% 2.4 MPH 99.4w/m2
Totals: 1.51" 0.00" 0.25" -0.20" 48.1° 1.7° 26.1° 69.1% 4.9 MPH 142.1w/m2